Time;durP1;ratioP1;P1;durP2;ratioP2;P2;SDS_P1;SDS_P2;PMS_P1;PMS_P2;Temp;Humidity;BMP_temperature;BMP_pressure;BME280_temperature;BME280_humidity;BME280_pressure;Samples;Min_cycle;Max_cycle;Signal;HPM_P1;HPM_P2
2022/09/03 00:00:29;;;;;;;0.32;0.32;;;;;;;21.54;33.28;100554.16;5111579;28;20027;-81
2022/09/03 00:03:19;;;;;;;0.50;0.50;;;;;;;21.43;33.38;100548.78;5144578;28;20050;-81
2022/09/03 00:06:18;;;;;;;0.20;0.20;;;;;;;21.49;33.19;100548.31;5142727;28;20054;-81
2022/09/03 00:09:02;;;;;;;0.50;0.50;;;;;;;21.48;33.48;100551.94;5124687;28;20097;-82
2022/09/03 00:11:52;;;;;;;0.30;0.30;;;;;;;21.49;33.09;100553.66;5140345;28;20035;-81
2022/09/03 00:14:32;;;;;;;0.30;0.30;;;;;;;21.48;32.91;100544.81;5109796;28;20039;-82
2022/09/03 00:17:29;;;;;;;2.35;0.43;;;;;;;21.45;33.19;100538.81;5156455;28;20043;-82
2022/09/03 00:20:15;;;;;;;0.88;0.70;;;;;;;21.43;32.95;100538.13;5083184;29;20058;-80
2022/09/03 00:22:49;;;;;;;0.63;0.63;;;;;;;21.38;33.19;100543.78;5107411;28;20063;-81
2022/09/03 00:25:27;;;;;;;0.38;0.38;;;;;;;21.41;32.85;100542.72;5114796;29;20047;-81
2022/09/03 00:28:04;;;;;;;0.43;0.40;;;;;;;21.36;33.00;100538.56;5146230;28;20047;-83
2022/09/03 00:30:35;;;;;;;0.20;0.20;;;;;;;21.22;33.43;100541.41;5116263;28;20026;-81
2022/09/03 00:33:30;;;;;;;0.30;0.30;;;;;;;21.29;33.40;100544.50;5129583;28;20123;-83
2022/09/03 00:36:13;;;;;;;0.20;0.20;;;;;;;21.27;33.26;100547.28;5145553;28;20036;-83
2022/09/03 00:38:44;;;;;;;0.20;0.20;;;;;;;21.18;33.59;100542.63;5160494;28;20040;-80
2022/09/03 00:41:45;;;;;;;1.10;0.68;;;;;;;21.16;33.91;100544.56;5108385;29;20039;-81
2022/09/03 00:44:45;;;;;;;0.28;0.28;;;;;;;21.12;33.55;100543.06;5170945;28;20122;-82
2022/09/03 00:47:41;;;;;;;0.20;0.20;;;;;;;21.09;33.21;100545.97;5162643;28;20039;-82
2022/09/03 00:50:46;;;;;;;0.35;0.35;;;;;;;20.99;33.87;100536.00;5136716;28;20061;-81
2022/09/03 00:53:35;;;;;;;8.95;0.82;;;;;;;20.95;34.02;100547.00;5154676;28;20043;-82
2022/09/03 00:56:20;;;;;;;0.30;0.30;;;;;;;20.80;34.38;100539.16;5175718;28;20443;-80
2022/09/03 00:59:10;;;;;;;0.20;0.20;;;;;;;20.79;33.98;100545.47;5125330;28;20043;-81
2022/09/03 01:02:08;;;;;;;0.73;0.73;;;;;;;20.84;33.66;100542.47;5131745;28;20063;-82
2022/09/03 01:05:04;;;;;;;0.30;0.30;;;;;;;20.84;33.80;100539.78;5166347;28;20530;-82
2022/09/03 01:07:57;;;;;;;0.20;0.20;;;;;;;20.87;33.56;100536.88;5153302;28;20122;-81
2022/09/03 01:10:34;;;;;;;0.25;0.25;;;;;;;20.80;33.67;100541.84;5143561;28;20282;-80
2022/09/03 01:13:22;;;;;;;0.30;0.30;;;;;;;20.81;33.98;100540.00;5113956;28;20109;-82
2022/09/03 01:16:16;;;;;;;0.32;0.32;;;;;;;20.59;34.20;100538.88;5142093;28;20026;-82
2022/09/03 01:18:59;;;;;;;0.20;0.20;;;;;;;20.51;34.89;100534.09;5104203;29;20047;-82
2022/09/03 01:21:48;;;;;;;0.90;0.90;;;;;;;20.61;34.50;100536.97;5122158;28;20050;-80
2022/09/03 01:24:42;;;;;;;0.30;0.30;;;;;;;20.62;33.94;100538.63;5130521;28;20043;-80
2022/09/03 01:27:38;;;;;;;0.20;0.20;;;;;;;20.44;35.03;100546.16;5121324;28;20280;-80
2022/09/03 01:30:17;;;;;;;0.40;0.40;;;;;;;20.54;34.09;100541.00;5119230;28;20034;-82
2022/09/03 01:32:59;;;;;;;0.20;0.20;;;;;;;20.43;34.32;100544.44;5123494;28;20614;-80
2022/09/03 01:35:42;;;;;;;0.38;0.38;;;;;;;20.37;34.69;100542.22;5134933;28;20517;-81
2022/09/03 01:38:25;;;;;;;0.55;0.55;;;;;;;20.35;34.82;100542.34;5091293;28;20055;-80
2022/09/03 01:44:05;;;;;;;0.30;0.30;;;;;;;20.28;35.34;100543.75;5144930;28;20650;-80
2022/09/03 01:46:40;;;;;;;2.00;1.23;;;;;;;20.18;35.24;100540.03;5117279;28;20550;-80
2022/09/03 01:49:27;;;;;;;0.20;0.20;;;;;;;20.14;34.93;100542.06;5141550;28;20030;-80
2022/09/03 01:52:23;;;;;;;0.38;0.38;;;;;;;20.13;34.93;100533.19;5145048;28;20047;-80
2022/09/03 01:55:11;;;;;;;0.22;0.22;;;;;;;20.20;34.85;100543.44;5133863;28;20113;-80
2022/09/03 01:57:54;;;;;;;0.30;0.30;;;;;;;20.19;34.75;100537.25;5101818;28;20040;-80
2022/09/03 02:00:27;;;;;;;0.20;0.20;;;;;;;20.19;34.65;100533.75;5101481;28;20094;-80
2022/09/03 02:03:04;;;;;;;0.20;0.20;;;;;;;20.09;35.15;100539.72;5120361;28;20066;-80
2022/09/03 02:05:35;;;;;;;0.80;0.80;;;;;;;20.11;34.90;100539.59;5096365;28;20074;-80
2022/09/03 02:08:09;;;;;;;0.30;0.30;;;;;;;20.05;34.67;100548.03;5119109;28;20036;-80
2022/09/03 02:10:44;;;;;;;0.50;0.50;;;;;;;20.01;35.03;100543.84;5118201;28;20070;-80
2022/09/03 02:13:24;;;;;;;0.10;0.10;;;;;;;19.87;35.97;100543.00;5123950;28;20038;-80
2022/09/03 02:15:59;;;;;;;0.30;0.30;;;;;;;19.94;34.97;100536.31;5173719;28;20026;-80
2022/09/03 02:18:36;;;;;;;0.50;0.50;;;;;;;19.91;35.33;100541.00;5152657;28;20047;-81
2022/09/03 02:21:09;;;;;;;0.22;0.22;;;;;;;19.96;35.26;100536.19;5114739;28;20395;-80
2022/09/03 02:23:41;;;;;;;0.20;0.20;;;;;;;19.87;35.42;100532.38;5170476;28;20055;-80
2022/09/03 02:26:14;;;;;;;0.30;0.30;;;;;;;19.89;35.16;100532.25;5154297;28;20115;-80
2022/09/03 02:28:45;;;;;;;0.28;0.28;;;;;;;19.87;35.23;100537.69;5152709;28;20047;-80
2022/09/03 02:31:16;;;;;;;0.25;0.25;;;;;;;19.89;35.28;100533.13;5152208;28;20054;-81
2022/09/03 02:33:48;;;;;;;0.30;0.30;;;;;;;19.82;35.48;100537.97;5150003;28;20144;-80
2022/09/03 02:36:25;;;;;;;0.20;0.20;;;;;;;19.87;35.00;100531.53;5141445;28;20061;-81
2022/09/03 02:38:55;;;;;;;0.30;0.30;;;;;;;19.83;35.44;100536.19;5122165;28;20040;-80
2022/09/03 02:41:26;;;;;;;0.50;0.50;;;;;;;19.84;35.33;100531.69;5133822;28;20050;-80
2022/09/03 02:44:08;;;;;;;0.35;0.35;;;;;;;19.67;36.09;100531.06;5133693;28;20499;-81
2022/09/03 02:46:52;;;;;;;0.28;0.28;;;;;;;19.72;35.51;100536.06;5131559;28;20412;-80
2022/09/03 02:49:23;;;;;;;0.50;0.50;;;;;;;19.72;35.41;100531.56;5124002;28;20539;-80
2022/09/03 02:52:05;;;;;;;0.30;0.30;;;;;;;19.82;35.29;100530.00;5148489;28;20101;-80
2022/09/03 02:54:39;;;;;;;0.30;0.30;;;;;;;19.67;37.21;100531.06;5098119;29;20028;-81
2022/09/03 02:57:15;;;;;;;0.30;0.30;;;;;;;19.44;36.70;100536.13;5122289;28;20053;-80
2022/09/03 02:59:46;;;;;;;0.30;0.30;;;;;;;19.58;36.17;100534.34;5171911;28;20708;-80
2022/09/03 03:02:18;;;;;;;0.50;0.50;;;;;;;19.56;36.38;100536.25;5103182;28;20054;-80
2022/09/03 03:04:49;;;;;;;0.22;0.22;;;;;;;19.41;36.65;100536.31;5158268;28;20085;-79
2022/09/03 03:07:25;;;;;;;0.20;0.20;;;;;;;19.45;36.19;100535.19;5119162;28;20050;-80
2022/09/03 03:10:05;;;;;;;0.52;0.52;;;;;;;19.36;37.05;100543.78;5168584;28;20029;-80
2022/09/03 03:12:36;;;;;;;5.57;0.50;;;;;;;19.19;37.40;100529.78;5141146;28;20507;-80
2022/09/03 03:15:10;;;;;;;0.28;0.28;;;;;;;19.13;37.93;100537.31;5109791;28;20081;-80
2022/09/03 03:17:40;;;;;;;0.30;0.30;;;;;;;19.15;37.08;100525.63;5155085;28;20066;-80
2022/09/03 03:20:11;;;;;;;0.30;0.30;;;;;;;19.23;37.68;100527.78;5157925;28;20120;-79
2022/09/03 03:22:41;;;;;;;0.38;0.38;;;;;;;19.20;37.77;100525.31;5174511;28;20038;-80
2022/09/03 03:25:12;;;;;;;0.47;0.45;;;;;;;19.12;38.07;100525.84;5151179;28;20035;-82
2022/09/03 03:27:43;;;;;;;0.50;0.50;;;;;;;19.09;38.03;100526.03;5152586;28;20027;-80
2022/09/03 03:30:13;;;;;;;0.32;0.32;;;;;;;19.09;37.73;100526.03;5141108;28;20112;-80
2022/09/03 03:32:44;;;;;;;0.57;0.57;;;;;;;18.98;38.45;100525.88;5123247;28;20045;-80
2022/09/03 03:35:14;;;;;;;0.32;0.32;;;;;;;19.00;37.65;100521.31;5133642;28;20034;-80
2022/09/03 03:37:45;;;;;;;0.20;0.20;;;;;;;19.11;37.53;100525.94;5176405;28;20042;-81
2022/09/03 03:40:16;;;;;;;0.40;0.40;;;;;;;18.98;38.53;100523.22;5176263;28;20019;-80
2022/09/03 03:42:48;;;;;;;0.28;0.28;;;;;;;18.58;40.28;100526.66;5162578;28;20054;-80
2022/09/03 03:45:19;;;;;;;0.30;0.30;;;;;;;18.76;38.38;100521.94;5158410;28;20027;-81
2022/09/03 03:47:49;;;;;;;0.30;0.30;;;;;;;18.72;39.50;100520.41;5181677;28;20114;-80
2022/09/03 03:50:20;;;;;;;0.20;0.20;;;;;;;18.79;38.60;100521.75;5161672;28;20045;-81
2022/09/03 03:52:50;;;;;;;1.85;0.95;;;;;;;18.79;39.27;100524.41;5139269;28;20047;-80
2022/09/03 03:55:21;;;;;;;0.30;0.30;;;;;;;18.63;39.93;100521.03;5119627;28;20030;-80
2022/09/03 03:57:52;;;;;;;0.25;0.25;;;;;;;18.45;40.20;100531.88;5126395;28;20900;-80
2022/09/03 04:00:23;;;;;;;0.20;0.20;;;;;;;18.52;39.68;100527.00;5143158;28;20043;-80
2022/09/03 04:02:53;;;;;;;0.30;0.30;;;;;;;18.43;40.70;100528.47;5138945;28;20726;-80
2022/09/03 04:05:24;;;;;;;0.20;0.20;;;;;;;18.63;39.20;100521.03;5147234;28;20064;-80
2022/09/03 04:07:55;;;;;;;0.45;0.45;;;;;;;18.48;40.38;100523.69;5130504;28;20043;-79
2022/09/03 04:10:25;;;;;;;0.30;0.30;;;;;;;18.53;39.79;100524.28;5117892;28;20333;-80
2022/09/03 04:12:56;;;;;;;0.35;0.35;;;;;;;18.45;40.08;100523.91;5151076;28;20051;-81
2022/09/03 04:15:26;;;;;;;0.20;0.20;;;;;;;18.44;40.14;100522.22;5124122;28;20030;-80
2022/09/03 04:17:57;;;;;;;0.30;0.30;;;;;;;18.32;40.53;100515.88;5116026;28;20118;-80
2022/09/03 04:20:27;;;;;;;3.85;0.52;;;;;;;18.42;39.86;100505.50;5126095;28;20250;-80
2022/09/03 04:23:02;;;;;;;0.90;0.90;;;;;;;18.46;39.89;100511.47;5156802;28;20098;-80
2022/09/03 04:25:32;;;;;;;1.20;0.73;;;;;;;18.47;39.49;100508.72;5161546;28;20094;-81
2022/09/03 04:28:09;;;;;;;0.25;0.25;;;;;;;18.49;39.14;100500.66;5141476;28;20051;-81
2022/09/03 04:30:40;;;;;;;0.30;0.30;;;;;;;18.45;39.85;100505.31;5139249;28;20027;-80
2022/09/03 04:33:13;;;;;;;0.45;0.45;;;;;;;18.47;39.20;100508.72;5113424;28;20039;-80
2022/09/03 04:35:44;;;;;;;0.28;0.28;;;;;;;18.44;39.41;100514.22;5138162;28;20031;-80
2022/09/03 04:38:16;;;;;;;0.30;0.30;;;;;;;18.48;39.33;100515.72;5132764;28;20037;-80
2022/09/03 04:40:52;;;;;;;0.47;0.47;;;;;;;18.56;39.13;100507.28;5155631;28;20082;-81
2022/09/03 04:43:23;;;;;;;0.20;0.20;;;;;;;18.58;39.06;100505.38;5128810;28;20054;-80
2022/09/03 04:46:09;;;;;;;0.40;0.40;;;;;;;18.55;38.70;100506.41;5137145;28;20125;-80
2022/09/03 04:48:40;;;;;;;0.30;0.30;;;;;;;18.49;39.45;100514.78;5134607;28;20062;-80
2022/09/03 04:51:16;;;;;;;0.40;0.40;;;;;;;18.55;39.03;100517.03;5121185;28;20031;-81
2022/09/03 04:53:52;;;;;;;0.30;0.30;;;;;;;18.62;38.68;100514.84;5119449;28;20053;-80
2022/09/03 04:56:25;;;;;;;0.40;0.40;;;;;;;18.65;38.60;100517.31;5121618;28;20031;-80
2022/09/03 04:58:59;;;;;;;5.82;1.15;;;;;;;18.71;38.76;100513.44;5119857;28;20047;-80
2022/09/03 05:01:30;;;;;;;;;;;;;;;18.68;38.91;100508.28;5120953;29;20054;-80
2022/09/03 05:04:01;;;;;;;0.47;0.45;;;;;;;18.72;39.07;100502.69;5106406;28;19918;-80
2022/09/03 05:06:33;;;;;;;0.43;0.43;;;;;;;18.74;38.46;100513.22;5154920;28;20035;-80
2022/09/03 05:09:05;;;;;;;0.27;0.27;;;;;;;18.88;38.71;100513.16;5160267;28;20045;-80
2022/09/03 05:11:35;;;;;;;0.20;0.20;;;;;;;18.82;38.92;100513.56;5152928;28;20042;-80
2022/09/03 05:14:11;;;;;;;1.23;0.77;;;;;;;18.87;38.48;100511.47;5141535;28;20045;-80
2022/09/03 05:16:42;;;;;;;0.30;0.30;;;;;;;18.98;38.89;100508.13;5113767;28;20073;-80
2022/09/03 05:19:12;;;;;;;0.40;0.40;;;;;;;18.99;38.64;100508.97;5140806;28;20059;-80
2022/09/03 05:21:43;;;;;;;0.25;0.25;;;;;;;18.97;38.62;100505.56;5151159;28;20735;-81
2022/09/03 05:24:14;;;;;;;0.30;0.30;;;;;;;19.01;38.51;100512.41;5112042;28;20034;-80
2022/09/03 05:26:44;;;;;;;0.20;0.20;;;;;;;18.95;38.46;100516.31;5124853;28;20038;-80
2022/09/03 05:29:15;;;;;;;0.28;0.28;;;;;;;18.92;38.72;100512.97;5159181;28;20472;-80
2022/09/03 05:31:45;;;;;;;0.28;0.28;;;;;;;18.93;38.97;100509.38;5155918;28;20038;-80
2022/09/03 05:34:16;;;;;;;0.30;0.30;;;;;;;18.99;38.40;100504.53;5132060;28;20496;-80
2022/09/03 05:36:48;;;;;;;0.45;0.45;;;;;;;19.02;38.69;100508.78;5181880;28;20026;-80
2022/09/03 05:39:19;;;;;;;0.30;0.30;;;;;;;19.02;38.74;100508.78;5090508;28;20106;-80
2022/09/03 05:41:51;;;;;;;0.28;0.28;;;;;;;19.06;38.55;100509.44;5135570;28;20291;-80
2022/09/03 05:44:22;;;;;;;0.30;0.30;;;;;;;19.05;38.35;100510.38;5114096;28;20078;-80
2022/09/03 05:46:53;;;;;;;0.30;0.30;;;;;;;19.02;38.69;100516.75;5150607;28;20728;-80
2022/09/03 05:49:24;;;;;;;0.30;0.30;;;;;;;19.05;38.73;100508.56;5099118;28;20035;-81
2022/09/03 05:51:54;;;;;;;1.15;1.10;;;;;;;19.10;38.72;100516.25;5115832;28;20039;-80
2022/09/03 05:54:25;;;;;;;0.85;0.73;;;;;;;19.07;38.91;100517.31;5161756;28;20023;-80
2022/09/03 05:56:55;;;;;;;0.47;0.47;;;;;;;19.09;38.59;100517.22;5152774;28;20090;-80
2022/09/03 05:59:26;;;;;;;0.20;0.20;;;;;;;19.15;38.87;100516.81;5138980;28;20500;-82
2022/09/03 06:01:57;;;;;;;0.20;0.20;;;;;;;19.08;38.57;100521.66;5175369;28;20110;-81
2022/09/03 06:04:28;;;;;;;0.20;0.20;;;;;;;19.05;38.83;100516.53;5127842;28;20031;-82
2022/09/03 06:06:58;;;;;;;0.30;0.30;;;;;;;19.01;38.75;100525.69;5112458;28;20133;-80
2022/09/03 06:09:29;;;;;;;0.25;0.25;;;;;;;19.01;39.24;100520.38;5125911;28;20046;-80
2022/09/03 06:11:59;;;;;;;0.30;0.30;;;;;;;19.05;39.66;100519.19;5091964;28;20040;-80
2022/09/03 06:14:30;;;;;;;0.30;0.30;;;;;;;19.03;38.88;100516.66;5120617;28;20428;-79
2022/09/03 06:17:00;;;;;;;1.27;1.17;;;;;;;19.05;38.80;100516.53;5086986;28;20050;-80
2022/09/03 06:19:31;;;;;;;0.43;0.40;;;;;;;18.96;39.97;100520.66;5142789;28;20090;-81
2022/09/03 06:22:02;;;;;;;0.50;0.50;;;;;;;19.05;39.22;100526.34;5141648;28;20039;-80
2022/09/03 06:24:32;;;;;;;0.30;0.30;;;;;;;19.03;39.32;100523.78;5133271;28;20094;-79
2022/09/03 06:27:03;;;;;;;0.30;0.30;;;;;;;19.00;39.26;100523.97;5131250;28;20043;-80
2022/09/03 06:29:34;;;;;;;0.20;0.20;;;;;;;19.07;39.05;100527.09;5132760;28;20030;-81
2022/09/03 06:32:05;;;;;;;0.20;0.20;;;;;;;19.07;39.28;100517.31;5145042;28;20039;-80
2022/09/03 06:34:35;;;;;;;0.20;0.20;;;;;;;19.01;39.44;100521.22;5158393;28;20034;-80
2022/09/03 06:37:08;;;;;;;0.28;0.28;;;;;;;18.98;39.95;100524.09;5146918;28;20046;-79
2022/09/03 06:39:39;;;;;;;0.82;0.82;;;;;;;19.10;39.15;100521.56;5137882;28;20066;-80
2022/09/03 06:42:11;;;;;;;0.40;0.40;;;;;;;19.07;39.95;100525.28;5138329;28;20685;-81
2022/09/03 06:44:44;;;;;;;0.75;0.40;;;;;;;19.12;40.76;100524.97;5091121;29;20440;-80
2022/09/03 06:47:14;;;;;;;;;;;;;;;19.11;39.98;100529.44;5107059;29;20106;-80
2022/09/03 06:49:45;;;;;;;0.17;0.17;;;;;;;19.03;40.58;100531.75;5150467;28;19982;-81
2022/09/03 06:52:15;;;;;;;0.40;0.40;;;;;;;18.99;41.25;100535.56;5111079;28;20035;-80
2022/09/03 06:54:47;;;;;;;0.20;0.20;;;;;;;19.16;39.93;100530.00;5126482;28;20062;-81
2022/09/03 06:57:17;;;;;;;0.40;0.40;;;;;;;19.24;40.20;100528.63;5176993;28;20054;-81
2022/09/03 06:59:48;;;;;;;0.30;0.30;;;;;;;19.09;40.13;100530.50;5149877;28;20395;-81
2022/09/03 07:02:21;;;;;;;0.20;0.20;;;;;;;19.12;40.56;100530.28;5098742;29;20035;-80
2022/09/03 07:04:52;;;;;;;0.20;0.20;;;;;;;19.16;41.16;100532.66;5133939;28;20043;-80
2022/09/03 07:07:22;;;;;;;0.20;0.20;;;;;;;19.14;40.32;100529.22;5145237;28;20550;-81
2022/09/03 07:09:53;;;;;;;0.20;0.20;;;;;;;19.09;40.53;100534.00;5117980;28;20031;-81
2022/09/03 07:12:23;;;;;;;0.30;0.30;;;;;;;19.15;40.57;100530.94;5137137;28;20053;-80
2022/09/03 07:14:54;;;;;;;0.80;0.50;;;;;;;19.14;40.96;100528.41;5138275;28;20122;-80
2022/09/03 07:17:25;;;;;;;0.20;0.20;;;;;;;18.93;41.90;100536.81;5140946;28;20051;-81
2022/09/03 07:19:56;;;;;;;0.20;0.20;;;;;;;19.06;40.59;100542.19;5134528;28;20419;-81
2022/09/03 07:22:26;;;;;;;0.25;0.25;;;;;;;19.05;40.91;100540.47;5143949;28;20130;-80
2022/09/03 07:24:57;;;;;;;0.20;0.20;;;;;;;19.10;40.98;100533.06;5120067;28;20232;-81
2022/09/03 07:27:27;;;;;;;0.20;0.20;;;;;;;19.16;40.66;100535.31;5145100;28;20524;-81
2022/09/03 07:29:58;;;;;;;0.30;0.30;;;;;;;19.34;40.30;100535.03;5127889;28;20026;-81
2022/09/03 07:32:28;;;;;;;0.25;0.25;;;;;;;19.29;41.20;100532.69;5136802;28;20090;-80
2022/09/03 07:34:59;;;;;;;0.20;0.20;;;;;;;19.27;40.98;100526.59;5133316;28;20558;-80
2022/09/03 07:37:30;;;;;;;0.30;0.30;;;;;;;19.38;40.75;100536.53;5179721;28;20062;-80
2022/09/03 07:40:01;;;;;;;0.57;0.47;;;;;;;19.38;40.87;100533.03;5151999;28;20415;-79
2022/09/03 07:42:34;;;;;;;0.30;0.30;;;;;;;19.32;41.96;100528.97;5132308;28;20039;-80
2022/09/03 07:45:09;;;;;;;0.28;0.28;;;;;;;19.25;41.89;100538.31;5158372;28;20035;-78
2022/09/03 07:47:48;;;;;;;0.30;0.30;;;;;;;19.40;41.27;100536.44;5138321;28;20066;-80
2022/09/03 07:50:19;;;;;;;0.20;0.20;;;;;;;19.46;42.08;100534.19;5163263;28;20027;-80
2022/09/03 07:52:57;;;;;;;0.25;0.25;;;;;;;19.40;42.06;100545.25;5155158;28;20747;-80
2022/09/03 07:55:28;;;;;;;0.40;0.40;;;;;;;19.48;41.33;100542.94;5165122;28;20027;-80
2022/09/03 07:57:58;;;;;;;0.20;0.20;;;;;;;19.44;41.21;100540.59;5118499;28;20039;-80
2022/09/03 08:00:31;;;;;;;0.35;0.35;;;;;;;19.47;41.01;100543.88;5119954;28;20055;-79
2022/09/03 08:03:07;;;;;;;0.30;0.30;;;;;;;19.54;41.42;100543.50;5134612;28;20058;-80
2022/09/03 08:05:37;;;;;;;0.50;0.50;;;;;;;19.58;40.91;100542.31;5164448;28;20023;-80
2022/09/03 08:08:08;;;;;;;0.30;0.30;;;;;;;19.57;41.87;100537.94;5161597;28;20050;-80
2022/09/03 08:10:39;;;;;;;0.20;0.20;;;;;;;19.56;41.50;100550.41;5167388;28;20033;-80
2022/09/03 08:13:10;;;;;;;0.52;0.32;;;;;;;19.64;41.17;100548.09;5156447;28;20046;-80
2022/09/03 08:15:41;;;;;;;0.20;0.20;;;;;;;19.66;41.39;100553.28;5186808;28;20023;-80
2022/09/03 08:18:13;;;;;;;0.45;0.45;;;;;;;19.63;42.03;100551.69;5159959;28;20034;-80
2022/09/03 08:20:43;;;;;;;0.20;0.20;;;;;;;19.67;41.86;100552.34;5138636;28;20042;-80
2022/09/03 08:23:15;;;;;;;0.20;0.20;;;;;;;19.77;41.06;100541.91;5163575;28;20038;-80
2022/09/03 08:25:45;;;;;;;0.35;0.35;;;;;;;19.82;41.29;100550.44;5137446;28;20043;-80
2022/09/03 08:28:16;;;;;;;0.20;0.20;;;;;;;19.85;41.43;100552.06;5125280;28;20073;-80
2022/09/03 08:30:46;;;;;;;0.32;0.32;;;;;;;19.89;41.20;100550.88;5140390;28;20117;-79
2022/09/03 08:33:35;;;;;;;0.43;0.43;;;;;;;19.88;41.27;100549.19;5121562;28;20042;-79
2022/09/03 08:36:13;;;;;;;0.30;0.30;;;;;;;19.79;41.29;100554.16;5117936;28;20106;-80
2022/09/03 08:38:45;;;;;;;0.22;0.22;;;;;;;19.88;41.41;100549.19;5139628;28;20043;-80
2022/09/03 08:41:20;;;;;;;0.20;0.20;;;;;;;19.87;41.40;100552.81;5139729;28;20085;-80
2022/09/03 08:44:21;;;;;;;0.20;0.20;;;;;;;19.86;41.10;100551.97;5168982;28;20049;-80
2022/09/03 08:47:20;;;;;;;6.32;1.27;;;;;;;19.93;41.57;100547.06;5163631;28;20097;-79
2022/09/03 08:50:17;;;;;;;1.75;0.82;;;;;;;19.99;42.53;100551.97;5200915;28;20042;-79
2022/09/03 08:52:56;;;;;;;0.20;0.20;;;;;;;20.04;43.01;100549.81;5116218;28;20047;-79
2022/09/03 08:55:30;;;;;;;0.40;0.40;;;;;;;20.03;42.50;100548.13;5090893;29;20045;-82
2022/09/03 08:58:09;;;;;;;0.30;0.30;;;;;;;20.13;42.98;100551.84;5197738;28;20027;-83
2022/09/03 09:01:08;;;;;;;0.43;0.43;;;;;;;20.14;42.40;100544.72;5167399;28;20027;-81
2022/09/03 09:03:42;;;;;;;0.30;0.30;;;;;;;20.21;42.85;100543.31;5186992;28;20040;-80
2022/09/03 09:06:40;;;;;;;0.68;0.68;;;;;;;20.20;44.69;100554.94;5178468;28;20035;-81
2022/09/03 09:09:23;;;;;;;0.95;0.40;;;;;;;20.31;43.40;100551.50;5157012;28;20117;-80
2022/09/03 09:12:00;;;;;;;0.20;0.20;;;;;;;20.33;44.14;100548.75;5156497;28;20043;-80
2022/09/03 09:14:49;;;;;;;0.35;0.35;;;;;;;20.35;44.52;100549.47;5158008;28;20137;-80
2022/09/03 09:17:23;;;;;;;0.32;0.32;;;;;;;20.43;44.04;100555.97;5122367;28;20137;-81
2022/09/03 09:20:08;;;;;;;0.43;0.40;;;;;;;20.46;43.40;100549.56;5156674;28;20035;-80
2022/09/03 09:22:42;;;;;;;0.20;0.20;;;;;;;20.53;44.58;100548.16;5147053;28;20244;-80
2022/09/03 09:25:23;;;;;;;0.65;0.60;;;;;;;20.60;44.23;100548.59;5146701;28;20035;-81
2022/09/03 09:28:08;;;;;;;0.28;0.28;;;;;;;20.74;43.67;100543.13;5105165;28;20558;-81
2022/09/03 09:30:39;;;;;;;0.28;0.28;;;;;;;20.83;43.68;100548.75;5139653;28;20050;-81
2022/09/03 09:33:10;;;;;;;0.28;0.28;;;;;;;20.83;44.31;100552.25;5135612;28;20448;-80
2022/09/03 09:35:42;;;;;;;1.85;1.15;;;;;;;20.90;44.92;100548.19;5126858;28;20062;-80
2022/09/03 09:38:13;;;;;;;0.35;0.35;;;;;;;21.07;44.09;100548.78;5141425;28;20073;-80
2022/09/03 09:40:44;;;;;;;0.40;0.40;;;;;;;21.04;43.66;100555.16;5140932;28;20030;-82
2022/09/03 09:43:19;;;;;;;0.20;0.20;;;;;;;21.10;43.79;100553.03;5140076;28;20039;-80
2022/09/03 09:45:52;;;;;;;0.68;0.68;;;;;;;21.18;44.87;100561.31;5173849;28;20053;-80
2022/09/03 09:48:30;;;;;;;0.40;0.40;;;;;;;21.23;44.00;100556.47;5171134;28;20039;-81
2022/09/03 09:51:10;;;;;;;0.20;0.20;;;;;;;21.31;43.55;100556.75;5125197;28;20030;-81
2022/09/03 09:53:43;;;;;;;0.28;0.28;;;;;;;21.41;44.54;100564.06;5147387;28;20126;-81
2022/09/03 09:56:23;;;;;;;0.20;0.20;;;;;;;21.47;43.48;100560.91;5137274;28;20065;-81
2022/09/03 09:59:08;;;;;;;0.45;0.40;;;;;;;21.55;43.32;100555.84;5122854;28;20130;-81
2022/09/03 10:01:44;;;;;;;0.45;0.38;;;;;;;21.51;43.69;100562.41;5171675;28;20031;-80
2022/09/03 10:04:44;;;;;;;0.50;0.50;;;;;;;21.72;43.27;100561.75;5120080;28;20023;-81
2022/09/03 10:07:22;;;;;;;1.05;0.73;;;;;;;21.70;42.85;100568.06;5135292;28;20393;-79
2022/09/03 10:10:18;;;;;;;0.65;0.65;;;;;;;21.86;44.09;100569.53;5129947;28;20496;-80
2022/09/03 10:12:58;;;;;;;0.20;0.20;;;;;;;21.77;43.30;100559.59;5118632;28;20226;-81
2022/09/03 10:15:49;;;;;;;0.22;0.22;;;;;;;21.85;43.91;100565.19;5141429;28;20035;-81
2022/09/03 10:18:46;;;;;;;0.30;0.30;;;;;;;21.88;44.39;100556.94;5139714;28;20031;-81
2022/09/03 10:21:26;;;;;;;0.30;0.30;;;;;;;21.88;44.09;100556.94;5158502;28;20091;-81
2022/09/03 10:24:30;;;;;;;0.35;0.35;;;;;;;22.00;44.32;100558.66;5141316;28;20051;-81
2022/09/03 10:27:01;;;;;;;0.30;0.30;;;;;;;22.05;43.63;100555.63;5111034;28;20809;-81
2022/09/03 10:29:32;;;;;;;0.20;0.20;;;;;;;22.15;43.47;100553.06;5152818;28;20063;-81
2022/09/03 10:32:22;;;;;;;0.30;0.30;;;;;;;22.19;43.77;100559.84;5143900;28;20496;-81
2022/09/03 10:35:09;;;;;;;0.30;0.30;;;;;;;22.30;43.60;100559.88;5137239;29;20031;-81
2022/09/03 10:37:48;;;;;;;0.50;0.50;;;;;;;22.40;43.83;100561.84;5144637;28;20050;-81
2022/09/03 10:40:33;;;;;;;0.28;0.28;;;;;;;22.33;43.99;100569.47;5124575;28;20420;-81
2022/09/03 10:43:30;;;;;;;0.88;0.88;;;;;;;22.38;43.59;100561.94;5155933;28;20402;-81
2022/09/03 10:46:05;;;;;;;0.25;0.25;;;;;;;22.48;43.83;100552.22;5107761;28;20050;-80
2022/09/03 10:48:49;;;;;;;0.20;0.20;;;;;;;22.53;43.29;100557.22;5155680;28;20145;-80
2022/09/03 10:51:22;;;;;;;0.20;0.20;;;;;;;22.56;43.65;100556.97;5136789;28;20019;-80
2022/09/03 10:54:10;;;;;;;0.50;0.50;;;;;;;22.61;43.41;100556.59;5183272;28;20062;-80
2022/09/03 10:57:02;;;;;;;0.40;0.40;;;;;;;22.69;42.96;100569.34;5138327;28;20034;-80
2022/09/03 11:00:08;;;;;;;0.40;0.40;;;;;;;22.66;43.05;100564.25;5154317;28;20058;-80
2022/09/03 11:02:43;;;;;;;0.20;0.20;;;;;;;22.76;43.47;100573.25;5146100;28;20042;-81
2022/09/03 11:05:28;;;;;;;0.20;0.20;;;;;;;22.85;42.96;100564.44;5132159;28;20046;-80
2022/09/03 11:08:09;;;;;;;0.30;0.30;;;;;;;22.87;43.40;100562.50;5165946;28;20107;-81
2022/09/03 11:10:45;;;;;;;0.40;0.40;;;;;;;22.93;43.35;100567.34;5137333;28;20109;-81
2022/09/03 11:13:42;;;;;;;0.35;0.35;;;;;;;23.06;43.11;100558.31;5136627;28;20035;-81
2022/09/03 11:16:20;;;;;;;0.40;0.40;;;;;;;23.09;43.08;100564.25;5101437;28;20027;-81
2022/09/03 11:18:53;;;;;;;0.35;0.35;;;;;;;23.05;42.96;100554.81;5153953;28;20046;-80
2022/09/03 11:21:26;;;;;;;0.55;0.55;;;;;;;23.16;42.73;100555.72;5131945;28;20035;-81
2022/09/03 11:24:12;;;;;;;0.80;0.50;;;;;;;23.18;43.10;100549.28;5168341;28;20042;-80
2022/09/03 11:26:47;;;;;;;0.32;0.32;;;;;;;23.23;42.84;100547.09;5128963;28;20724;-80
2022/09/03 11:29:24;;;;;;;0.50;0.50;;;;;;;23.19;43.00;100548.31;5140720;28;20089;-80
2022/09/03 11:32:23;;;;;;;0.30;0.30;;;;;;;23.26;42.93;100546.00;5161074;28;20046;-81
2022/09/03 11:34:54;;;;;;;0.20;0.20;;;;;;;23.38;42.30;100544.97;5104353;28;20048;-81
2022/09/03 11:37:27;;;;;;;0.40;0.40;;;;;;;23.42;42.64;100542.88;5119041;28;20121;-78
2022/09/03 11:40:04;;;;;;;0.65;0.65;;;;;;;23.45;42.55;100539.94;5106348;29;20507;-79
2022/09/03 11:42:38;;;;;;;0.25;0.25;;;;;;;23.48;42.46;100534.31;5127528;28;20097;-80
2022/09/03 11:45:19;;;;;;;0.30;0.30;;;;;;;23.53;43.00;100532.09;5140698;28;20113;-79
2022/09/03 11:47:50;;;;;;;0.75;0.50;;;;;;;23.58;43.27;100529.88;5129796;28;20053;-79
2022/09/03 11:50:28;;;;;;;0.38;0.38;;;;;;;23.65;43.47;100524.00;5166639;28;20507;-79
2022/09/03 11:53:15;;;;;;;1.20;1.10;;;;;;;23.64;43.83;100524.97;5134365;28;20046;-80
2022/09/03 11:55:53;;;;;;;0.50;0.50;;;;;;;23.69;43.46;100522.75;5157135;28;20042;-80
2022/09/03 11:58:28;;;;;;;0.20;0.20;;;;;;;23.68;43.51;100519.22;5132149;28;20047;-80
2022/09/03 12:01:03;;;;;;;0.50;0.50;;;;;;;23.83;43.33;100527.78;5169622;28;20030;-81
2022/09/03 12:03:40;;;;;;;0.30;0.30;;;;;;;23.82;43.42;100518.03;5126233;28;20284;-81
2022/09/03 12:06:48;;;;;;;0.50;0.50;;;;;;;23.82;43.63;100511.81;5166244;28;20622;-81
2022/09/03 12:09:37;;;;;;;0.20;0.20;;;;;;;23.94;43.66;100512.63;5169741;28;20365;-81
2022/09/03 12:12:31;;;;;;;0.25;0.25;;;;;;;23.96;43.50;100511.53;5134478;28;20145;-81
2022/09/03 12:15:05;;;;;;;0.35;0.35;;;;;;;24.08;43.34;100511.41;5141719;28;20023;-81